Terminal Aerodrome Forecast
Issued by NWS Huntsville, AL

Current Version | Previous Version | Text Only | Print | Product List | Glossary On
Versions: 1 2 3 4 5 6 7 8 9 10 11 12 13 14 15 16 17 18 19 20 21 22 23 24 25 26 27 28 29 30 31 32 33 34 35 36 37 38
000
FTUS44 KHUN 272342
TAFHSV
TAF
KHSV 272342Z 2800/2824 12006KT 5SM -TSRA BR SCT035CB BKN080 OVC120
      TEMPO 2800/2803 3SM +TSRA BR BKN035CB
     FM280500 12004KT 5SM SHRA BR VCTS BKN035CB OVC050
     FM281800 12006KT P6SM BKN035 OVC050=

USA.gov is the U.S. government's official web portal to all federal, state and local government web resources and services.